createdAt,value
2022-08-17T00:01:55.130Z,20.27
2022-08-17T00:04:50.302Z,21.52
2022-08-17T00:07:40.240Z,23.02
2022-08-17T00:10:45.940Z,22.10
2022-08-17T00:13:36.043Z,22.13
2022-08-17T00:16:55.757Z,21.70
2022-08-17T00:19:33.112Z,24.27
2022-08-17T00:22:31.580Z,23.33
2022-08-17T00:25:26.694Z,20.77
2022-08-17T00:28:16.122Z,21.70
2022-08-17T00:31:02.784Z,22.25
2022-08-17T00:33:54.230Z,27.13
2022-08-17T00:36:43.878Z,21.25
2022-08-17T00:39:30.194Z,22.70
2022-08-17T00:42:19.548Z,23.50
2022-08-17T00:45:08.174Z,22.48
2022-08-17T00:47:54.201Z,23.13
2022-08-17T00:51:16.809Z,23.17
2022-08-17T00:54:20.008Z,21.50
2022-08-17T00:57:11.068Z,23.05
2022-08-17T01:00:03.752Z,26.02
2022-08-17T01:02:50.669Z,21.58
2022-08-17T01:05:42.113Z,20.33
2022-08-17T01:08:31.213Z,22.50
2022-08-17T01:11:46.507Z,26.90
2022-08-17T01:14:33.307Z,24.25
2022-08-17T01:17:19.744Z,24.23
2022-08-17T01:20:05.922Z,24.65
2022-08-17T01:22:55.476Z,21.05
2022-08-17T01:25:42.126Z,23.75
2022-08-17T01:28:52.832Z,24.63
2022-08-17T01:31:48.057Z,22.75
2022-08-17T01:34:42.380Z,23.50
2022-08-17T01:37:39.797Z,28.83
2022-08-17T01:40:43.927Z,26.33
2022-08-17T01:43:45.502Z,21.90
2022-08-17T01:46:35.007Z,27.08
2022-08-17T01:49:21.413Z,25.42
2022-08-17T01:52:10.217Z,29.88
2022-08-17T01:54:56.813Z,24.17
2022-08-17T01:57:45.495Z,24.23
2022-08-17T02:01:00.158Z,27.88
2022-08-17T02:03:38.563Z,25.77
2022-08-17T02:06:27.008Z,31.13
2022-08-17T02:09:26.197Z,26.50
2022-08-17T02:12:38.254Z,25.60
2022-08-17T02:15:26.742Z,25.90
2022-08-17T02:18:15.662Z,26.33
2022-08-17T02:21:01.603Z,26.58
2022-08-17T02:23:50.077Z,27.42
2022-08-17T02:26:36.621Z,26.70
2022-08-17T02:29:23.557Z,28.00
2022-08-17T02:32:27.372Z,31.73
2022-08-17T02:35:14.618Z,27.40
2022-08-17T02:38:06.929Z,28.02
2022-08-17T02:40:52.978Z,28.17
2022-08-17T02:43:38.781Z,30.83
2022-08-17T02:46:24.713Z,26.92
2022-08-17T02:49:12.012Z,28.48
2022-08-17T02:51:58.655Z,26.98
2022-08-17T02:54:45.208Z,26.10
2022-08-17T02:57:31.349Z,28.65
2022-08-17T03:00:24.724Z,28.63
2022-08-17T03:03:13.666Z,28.20
2022-08-17T03:06:00.949Z,26.73
2022-08-17T03:08:47.545Z,25.90
2022-08-17T03:11:33.487Z,27.13
2022-08-17T03:14:19.469Z,26.45
2022-08-17T03:17:17.182Z,25.83
2022-08-17T03:20:05.895Z,26.05
2022-08-17T03:22:55.839Z,26.60
2022-08-17T03:25:49.074Z,28.88
2022-08-17T03:28:40.555Z,27.00
2022-08-17T03:31:26.812Z,28.85
2022-08-17T03:34:14.427Z,26.67
2022-08-17T03:37:00.650Z,29.63
2022-08-17T03:39:47.385Z,31.02
2022-08-17T03:42:34.675Z,27.05
2022-08-17T03:45:43.333Z,30.50
2022-08-17T03:48:47.790Z,27.73
2022-08-17T03:51:52.494Z,29.77
2022-08-17T03:54:58.254Z,33.92
2022-08-17T03:57:44.781Z,29.00
2022-08-17T04:00:30.953Z,29.10
2022-08-17T04:03:17.931Z,31.27
2022-08-17T04:06:04.009Z,31.20
2022-08-17T04:08:50.056Z,31.25
2022-08-17T04:11:36.876Z,35.97
2022-08-17T04:14:23.504Z,33.85
2022-08-17T04:17:09.481Z,32.20
2022-08-17T04:19:56.332Z,35.80
2022-08-17T04:23:07.108Z,37.08
2022-08-17T04:25:53.870Z,33.08
2022-08-17T04:28:40.857Z,33.25
2022-08-17T04:31:28.272Z,32.55
2022-08-17T04:34:15.829Z,32.47
2022-08-17T04:37:07.685Z,32.20
2022-08-17T04:40:13.623Z,34.33
2022-08-17T04:43:12.341Z,30.52
2022-08-17T04:46:07.343Z,36.22
2022-08-17T04:48:56.355Z,34.08
2022-08-17T04:51:54.563Z,33.80
2022-08-17T04:54:43.194Z,32.10
2022-08-17T04:57:29.043Z,33.55
2022-08-17T05:00:25.854Z,41.58
2022-08-17T05:03:12.491Z,38.35
2022-08-17T05:05:58.899Z,35.75
2022-08-17T05:08:44.907Z,34.38
2022-08-17T05:11:31.429Z,42.40
2022-08-17T05:14:17.880Z,38.10
2022-08-17T05:17:04.552Z,42.65
2022-08-17T05:19:56.769Z,40.83
2022-08-17T05:22:54.511Z,40.03
2022-08-17T05:25:51.594Z,41.70
2022-08-17T05:28:37.903Z,36.13
2022-08-17T05:31:24.562Z,40.95
2022-08-17T05:34:11.466Z,37.70
2022-08-17T05:36:57.878Z,38.97
2022-08-17T05:39:43.802Z,44.80
2022-08-17T05:42:30.669Z,39.33
2022-08-17T05:45:39.877Z,38.92
2022-08-17T05:48:39.447Z,36.45
2022-08-17T05:51:44.933Z,43.25
2022-08-17T05:54:47.655Z,41.50
2022-08-17T05:57:53.117Z,42.20
2022-08-17T06:00:53.497Z,40.88
2022-08-17T06:03:54.975Z,40.75
2022-08-17T06:06:53.022Z,44.33
2022-08-17T06:09:46.993Z,47.83
2022-08-17T06:13:00.839Z,49.35
2022-08-17T06:15:53.694Z,44.87
2022-08-17T06:18:47.690Z,42.73
2022-08-17T06:21:38.821Z,42.60
2022-08-17T06:25:10.195Z,46.42
2022-08-17T06:28:02.747Z,43.58
2022-08-17T06:31:00.673Z,45.20
2022-08-17T06:33:47.514Z,44.53
2022-08-17T06:36:42.383Z,48.28
2022-08-17T06:39:51.236Z,45.40
2022-08-17T06:43:02.847Z,41.58
2022-08-17T06:46:14.530Z,44.38
2022-08-17T06:49:11.587Z,41.28
2022-08-17T06:52:37.215Z,50.38
2022-08-17T06:55:28.817Z,57.67
2022-08-17T06:58:21.208Z,55.65
2022-08-17T07:01:14.800Z,61.67
2022-08-17T07:04:24.302Z,55.75
2022-08-17T07:07:30.032Z,56.97
2022-08-17T07:10:17.375Z,54.63
2022-08-17T07:13:29.616Z,55.88
2022-08-17T07:16:22.072Z,62.30
2022-08-17T07:19:10.783Z,59.33
2022-08-17T07:22:22.586Z,58.95
2022-08-17T07:25:13.072Z,62.42
2022-08-17T07:28:06.956Z,58.75
2022-08-17T07:30:55.068Z,60.22
2022-08-17T07:34:03.551Z,56.03
2022-08-17T07:37:05.302Z,58.95
2022-08-17T07:39:59.631Z,61.22
2022-08-17T07:43:04.997Z,59.83
2022-08-17T07:46:18.355Z,61.25
2022-08-17T07:49:04.987Z,66.70
2022-08-17T07:51:51.279Z,69.47
2022-08-17T07:54:42.446Z,70.45
2022-08-17T07:57:35.396Z,77.38
2022-08-17T08:00:29.126Z,79.60
2022-08-17T08:03:27.226Z,73.60
2022-08-17T08:06:24.253Z,76.15
2022-08-17T08:09:48.547Z,72.38
2022-08-17T08:15:36.044Z,78.70
2022-08-17T08:18:38.574Z,84.40
2022-08-17T08:22:04.082Z,85.25
2022-08-17T08:25:23.522Z,81.22
2022-08-17T08:28:26.111Z,77.43
2022-08-17T08:31:38.888Z,78.32
2022-08-17T08:35:01.923Z,74.30
2022-08-17T08:38:25.443Z,81.97
2022-08-17T08:41:17.680Z,81.90
2022-08-17T08:44:59.536Z,80.32
2022-08-17T08:48:05.893Z,78.90
2022-08-17T08:51:21.491Z,79.18
2022-08-17T08:54:31.568Z,78.22
2022-08-17T08:57:33.963Z,66.05
2022-08-17T09:00:26.291Z,74.18
2022-08-17T09:03:50.950Z,71.30
2022-08-17T09:07:06.791Z,67.55
2022-08-17T09:10:25.558Z,68.10
2022-08-17T09:13:24.759Z,67.00
2022-08-17T09:16:29.760Z,51.50
2022-08-17T09:19:49.412Z,54.55
2022-08-17T09:22:48.473Z,60.63
2022-08-17T09:25:49.676Z,52.08
2022-08-17T09:28:38.376Z,50.13
2022-08-17T09:31:46.419Z,49.15
2022-08-17T09:34:47.106Z,50.35
2022-08-17T09:38:01.157Z,42.08
2022-08-17T09:40:57.501Z,44.70
2022-08-17T09:46:54.808Z,45.60
2022-08-17T09:49:59.987Z,47.53
2022-08-17T09:52:46.169Z,42.95
2022-08-17T09:56:01.279Z,42.10
2022-08-17T09:59:20.392Z,35.75
2022-08-17T10:02:35.904Z,38.75
2022-08-17T10:05:41.315Z,35.75
2022-08-17T10:08:47.098Z,39.40
2022-08-17T10:12:11.191Z,36.58
2022-08-17T10:15:07.999Z,34.95
2022-08-17T10:18:17.763Z,37.42
2022-08-17T10:21:34.035Z,32.92
2022-08-17T10:25:21.760Z,33.67
2022-08-17T10:28:14.251Z,35.45
2022-08-17T10:31:34.409Z,40.88
2022-08-17T10:34:38.831Z,41.50
2022-08-17T10:37:30.980Z,43.08
2022-08-17T10:40:17.687Z,32.83
2022-08-17T10:43:37.006Z,36.00
2022-08-17T10:46:55.101Z,38.65
2022-08-17T10:49:47.520Z,34.30
2022-08-17T10:52:33.606Z,38.15
2022-08-17T10:55:20.395Z,36.80
2022-08-17T10:58:21.827Z,32.22
2022-08-17T11:01:12.480Z,32.28
2022-08-17T11:04:04.862Z,36.55
2022-08-17T11:07:26.000Z,32.37
2022-08-17T11:10:18.146Z,34.05
2022-08-17T11:13:23.865Z,36.10
2022-08-17T11:16:29.545Z,32.90
2022-08-17T11:19:33.886Z,33.08
2022-08-17T11:22:52.476Z,30.88
2022-08-17T11:25:52.098Z,31.83
2022-08-17T11:28:52.630Z,30.90
2022-08-17T11:31:58.321Z,24.95
2022-08-17T11:34:45.014Z,32.47
2022-08-17T11:38:16.272Z,28.67
2022-08-17T11:41:30.189Z,26.98
2022-08-17T11:44:38.082Z,29.02
2022-08-17T11:48:26.075Z,32.80
2022-08-17T11:51:34.536Z,31.10
2022-08-17T11:54:38.872Z,33.97
2022-08-17T11:57:29.277Z,30.92
2022-08-17T12:00:49.462Z,33.42
2022-08-17T12:03:36.788Z,31.92
2022-08-17T12:06:44.635Z,28.80
2022-08-17T12:09:34.463Z,31.50
2022-08-17T12:12:29.662Z,27.90
2022-08-17T12:15:28.566Z,24.98
2022-08-17T12:18:28.005Z,28.63
2022-08-17T12:21:24.915Z,28.30
2022-08-17T12:24:36.876Z,25.15
2022-08-17T12:27:46.111Z,27.60
2022-08-17T12:30:39.519Z,24.98
2022-08-17T12:33:31.022Z,26.95
2022-08-17T12:36:21.368Z,24.27
2022-08-17T12:39:14.042Z,22.27
2022-08-17T12:44:50.256Z,20.27
2022-08-17T12:47:38.269Z,22.67
2022-08-17T12:50:28.984Z,25.73
2022-08-17T12:53:30.015Z,25.67
2022-08-17T12:56:16.224Z,23.30
2022-08-17T12:59:02.483Z,21.77
2022-08-17T13:01:48.936Z,23.42
2022-08-17T13:04:39.937Z,20.63
2022-08-17T13:07:33.064Z,17.75
2022-08-17T13:10:32.255Z,18.30
2022-08-17T13:13:26.722Z,15.90
2022-08-17T13:16:12.909Z,17.42
2022-08-17T13:19:07.151Z,18.98
2022-08-17T13:21:58.359Z,19.70
2022-08-17T13:24:54.122Z,18.08
2022-08-17T13:27:43.047Z,18.00
2022-08-17T13:30:33.287Z,16.67
2022-08-17T13:33:43.457Z,17.17
2022-08-17T13:36:33.895Z,16.42
2022-08-17T13:39:23.191Z,20.10
2022-08-17T13:42:50.390Z,15.35
2022-08-17T13:45:46.079Z,14.57
2022-08-17T13:48:37.280Z,12.32
2022-08-17T13:51:47.377Z,16.42
2022-08-17T13:54:37.047Z,11.65
2022-08-17T13:57:25.459Z,11.85
2022-08-17T14:00:30.062Z,11.52
2022-08-17T14:03:15.977Z,10.93
2022-08-17T14:06:05.885Z,11.27
2022-08-17T14:08:55.786Z,12.48
2022-08-17T14:11:42.861Z,9.77
2022-08-17T14:14:29.322Z,9.00
2022-08-17T14:17:16.510Z,10.00
2022-08-17T14:20:03.340Z,8.88
2022-08-17T14:22:52.113Z,9.93
2022-08-17T14:25:38.244Z,9.85
2022-08-17T14:28:24.572Z,9.73
2022-08-17T14:31:13.750Z,10.20
2022-08-17T14:33:59.781Z,8.23
2022-08-17T14:36:48.527Z,9.70
2022-08-17T14:39:34.988Z,10.20
2022-08-17T14:42:24.632Z,9.43
2022-08-17T14:45:32.981Z,10.07
2022-08-17T14:48:17.660Z,9.38
2022-08-17T14:51:04.813Z,9.77
2022-08-17T14:53:50.999Z,11.02
2022-08-17T14:56:38.270Z,11.82
2022-08-17T14:59:24.382Z,10.82
2022-08-17T15:02:10.801Z,10.00
2022-08-17T15:05:02.160Z,12.23
2022-08-17T15:07:48.236Z,10.10
2022-08-17T15:10:34.925Z,11.65
2022-08-17T15:13:24.551Z,10.20
2022-08-17T15:16:13.693Z,12.77
2022-08-17T15:18:59.886Z,10.45
2022-08-17T15:21:47.032Z,11.32
2022-08-17T15:24:33.706Z,11.30
2022-08-17T15:27:32.238Z,11.10
2022-08-17T15:30:19.180Z,12.50
2022-08-17T15:33:05.328Z,10.88
2022-08-17T15:35:53.390Z,12.45
2022-08-17T15:38:39.692Z,9.60
2022-08-17T15:41:28.219Z,9.40
2022-08-17T15:44:14.472Z,11.40
2022-08-17T15:47:02.909Z,9.27
2022-08-17T15:49:48.764Z,8.63
2022-08-17T15:52:40.530Z,8.45
2022-08-17T15:55:28.901Z,9.60
2022-08-17T15:58:15.038Z,8.82
2022-08-17T16:01:15.175Z,9.65
2022-08-17T16:04:07.286Z,9.50
2022-08-17T16:07:12.094Z,8.52
2022-08-17T16:09:58.130Z,11.70
2022-08-17T16:12:46.666Z,10.93
2022-08-17T16:15:32.997Z,8.85
2022-08-17T16:18:19.263Z,10.50
2022-08-17T16:21:27.572Z,9.60
2022-08-17T16:24:14.882Z,11.80
2022-08-17T16:27:04.447Z,9.27
2022-08-17T16:29:58.668Z,10.93
2022-08-17T16:32:45.289Z,9.50
2022-08-17T16:35:31.507Z,10.25
2022-08-17T16:38:18.795Z,8.73
2022-08-17T16:41:05.900Z,12.95
2022-08-17T16:43:52.137Z,11.88
2022-08-17T16:46:40.243Z,10.40
2022-08-17T16:49:36.963Z,14.10
2022-08-17T16:52:32.176Z,10.48
2022-08-17T16:55:22.172Z,11.57
2022-08-17T16:58:11.652Z,10.57
2022-08-17T17:00:59.465Z,12.45
2022-08-17T17:03:54.118Z,10.63
2022-08-17T17:07:05.576Z,13.23
2022-08-17T17:09:55.347Z,12.15
2022-08-17T17:13:01.467Z,9.75
2022-08-17T17:16:00.771Z,11.68
2022-08-17T17:19:12.410Z,15.68
2022-08-17T17:22:22.814Z,11.35
2022-08-17T17:25:27.234Z,11.27
2022-08-17T17:28:34.668Z,11.43
2022-08-17T17:31:25.197Z,12.68
2022-08-17T17:34:16.523Z,12.63
2022-08-17T17:36:55.105Z,12.48
2022-08-17T17:39:49.032Z,11.90
2022-08-17T17:42:39.447Z,12.43
2022-08-17T17:45:32.590Z,16.88
2022-08-17T17:48:18.937Z,14.98
2022-08-17T17:52:09.042Z,15.23
2022-08-17T17:54:49.538Z,16.00
2022-08-17T17:57:55.919Z,15.98
2022-08-17T18:00:52.116Z,15.43
2022-08-17T18:04:21.256Z,16.70
2022-08-17T18:07:23.587Z,16.05
2022-08-17T18:10:44.926Z,15.63
2022-08-17T18:13:53.677Z,17.77
2022-08-17T18:16:42.847Z,17.92
2022-08-17T18:19:31.433Z,17.30
2022-08-17T18:22:20.208Z,17.73
2022-08-17T18:25:38.465Z,17.75
2022-08-17T18:29:27.724Z,18.23
2022-08-17T18:32:23.932Z,17.73
2022-08-17T18:35:15.244Z,17.40
2022-08-17T18:39:14.537Z,16.52
2022-08-17T18:42:18.817Z,16.75
2022-08-17T18:45:15.013Z,17.27
2022-08-17T18:48:40.049Z,16.27
2022-08-17T18:51:41.703Z,18.88
2022-08-17T18:54:29.202Z,15.75
2022-08-17T18:57:34.858Z,18.67
2022-08-17T19:00:43.590Z,19.55
2022-08-17T19:03:31.778Z,23.02
2022-08-17T19:06:23.874Z,21.63
2022-08-17T19:09:35.939Z,20.98
2022-08-17T19:12:40.544Z,18.80
2022-08-17T19:15:47.706Z,19.77
2022-08-17T19:19:26.823Z,21.05
2022-08-17T19:22:38.265Z,20.02
2022-08-17T19:25:31.618Z,17.85
2022-08-17T19:28:23.172Z,18.45
2022-08-17T19:31:17.102Z,21.15
2022-08-17T19:34:03.329Z,18.30
2022-08-17T19:37:08.910Z,16.67
2022-08-17T19:40:51.791Z,17.08
2022-08-17T19:43:48.021Z,18.15
2022-08-17T19:46:56.386Z,17.30
2022-08-17T19:49:53.055Z,18.75
2022-08-17T19:52:55.271Z,18.42
2022-08-17T19:55:51.035Z,19.13
2022-08-17T19:58:48.897Z,19.83
2022-08-17T20:02:03.735Z,15.70
2022-08-17T20:04:53.254Z,17.48
2022-08-17T20:07:54.232Z,18.00
2022-08-17T20:11:01.368Z,17.77
2022-08-17T20:13:56.369Z,19.95
2022-08-17T20:16:42.704Z,17.75
2022-08-17T20:19:45.363Z,17.50
2022-08-17T20:22:52.186Z,19.77
2022-08-17T20:25:54.002Z,20.48
2022-08-17T20:29:15.321Z,20.00
2022-08-17T20:32:01.378Z,20.35
2022-08-17T20:34:47.890Z,18.60
2022-08-17T20:37:36.242Z,18.05
2022-08-17T20:40:27.920Z,19.98
2022-08-17T20:43:32.558Z,21.23
2022-08-17T20:46:51.655Z,22.67
2022-08-17T20:49:44.630Z,20.23
2022-08-17T20:52:53.727Z,22.92
2022-08-17T20:55:52.516Z,22.25
2022-08-17T20:58:47.220Z,25.13
2022-08-17T21:01:40.725Z,20.83
2022-08-17T21:05:00.994Z,23.17
2022-08-17T21:10:35.620Z,20.90
2022-08-17T21:13:34.686Z,24.80
2022-08-17T21:16:58.698Z,21.33
2022-08-17T21:20:00.523Z,28.00
2022-08-17T21:23:12.203Z,23.30
2022-08-17T21:25:58.463Z,20.48
2022-08-17T21:29:31.423Z,23.02
2022-08-17T21:32:29.258Z,20.67
2022-08-17T21:35:26.093Z,23.77
2022-08-17T21:38:15.613Z,22.88
2022-08-17T21:41:01.567Z,20.55
2022-08-17T21:43:51.005Z,21.40
2022-08-17T21:46:39.796Z,20.80
2022-08-17T21:49:28.775Z,23.10
2022-08-17T21:52:17.594Z,21.83
2022-08-17T21:55:04.292Z,18.75
2022-08-17T21:58:13.347Z,19.13
2022-08-17T22:01:27.006Z,23.55
2022-08-17T22:04:13.136Z,22.67
2022-08-17T22:07:02.717Z,19.17
2022-08-17T22:09:50.109Z,22.85
2022-08-17T22:12:38.443Z,20.00
2022-08-17T22:15:25.106Z,21.23
2022-08-17T22:18:20.597Z,19.88
2022-08-17T22:21:08.219Z,21.63
2022-08-17T22:24:06.576Z,25.95
2022-08-17T22:27:07.528Z,21.50
2022-08-17T22:29:58.007Z,20.38
2022-08-17T22:32:46.717Z,21.73
2022-08-17T22:35:36.170Z,24.45
2022-08-17T22:38:22.286Z,21.38
2022-08-17T22:41:20.284Z,26.00
2022-08-17T22:44:15.763Z,21.50
2022-08-17T22:47:16.934Z,21.17
2022-08-17T22:50:05.211Z,22.50
2022-08-17T22:53:20.123Z,20.30
2022-08-17T22:56:25.933Z,21.02
2022-08-17T22:59:21.311Z,19.90
2022-08-17T23:02:26.864Z,26.15
2022-08-17T23:05:16.807Z,21.88
2022-08-17T23:08:03.731Z,20.65
2022-08-17T23:10:49.896Z,20.85
2022-08-17T23:13:37.926Z,20.45
2022-08-17T23:16:30.881Z,23.42
2022-08-17T23:19:20.122Z,25.42
2022-08-17T23:22:09.818Z,19.17
2022-08-17T23:24:55.758Z,19.85
2022-08-17T23:27:41.894Z,19.65
2022-08-17T23:30:31.215Z,19.52
2022-08-17T23:33:30.236Z,20.50
2022-08-17T23:36:17.353Z,20.33
2022-08-17T23:39:04.901Z,20.02
2022-08-17T23:41:53.447Z,18.88
2022-08-17T23:44:41.662Z,17.98
2022-08-17T23:47:28.601Z,14.32
2022-08-17T23:50:15.830Z,18.52
2022-08-17T23:53:06.437Z,20.15
2022-08-17T23:56:04.605Z,18.73
2022-08-17T23:58:56.651Z,21.08
